Aurora, IL

3:18 AM CDT en Agosto 31, 2014 (GMT -0500)
Brookdale Lakes | Change Station
CLOSE
Current Station
Estación meteorológica personal
Location: Naperville, IL
Altura: 749 ft
Estaciones meteorológicas cercanas

Alt 749 ft 41.78 °N, 88.20 °W | Updated 2 seconds ago

Despejado
Despejado
71.9 ° F
Sensación térmica 71.9 ° F
N
0.0
Viento Variable Viento desde Norte
Gusts 1.0 mph

Hoy
Alta -- | Baja -- ° F
--% Posibilidad de precipitaciones
Ayer
Alta -- | Baja -- ° F
Precip. -- pul
6:17 AM 7:27 PM
Creciente, 29% visible
Presión 29.90 pul
Visibilidad 7.0 Millas
Nubes Nublado 3200 ft
Punto de rocío 69 ° F
Humedad 91%
Precipitaciones 0.00 pul
Espesor de la nieve No disponible.
UV 0 de una escala de 12
Polen 4.70 de una escala de 12
Ozono Buena
PM2.5 Moderada
Flu Activity No disponible.
METAR KDPA 310752Z 00000KT 7SM OVC032 21/19 A2992 RMK AO2 SLP125 T02060189

More Conditions Fewer Conditions

Presión 29.90 pul
Visibilidad 7.0 Millas
Nubes Nublado 3200 ft
Punto de rocío 69 ° F
Humedad 91%
Precipitaciones 0.00 pul
Espesor de la nieve No disponible.
UV 0 de una escala de 12
Polen 4.70 de una escala de 12
Ozono Buena
PM2.5 Moderada
Flu Activity No disponible.
METAR KDPA 310752Z 00000KT 7SM OVC032 21/19 A2992 RMK AO2 SLP125 T02060189

More Conditions Fewer Conditions

10-Day Weather Forecast

Almanac

Astronomía

Aug. 31, 2014 Salida Puesta
Hora real 6:17 AM CDT 7:27 PM CDT
Crepúsculo civil 5:49 AM CDT 7:56 PM CDT
Crepúsculo náutico 5:14 AM CDT 8:30 PM CDT
Crepúsculo astronómico 4:38 AM CDT 9:06 PM CDT
Luna 12:09 PM CDT 10:37 PM CDT
Horas de luz 14h 07m
Horas de luz
13h 10m
Tomorrow will be 2m 42s shorter.
Creciente, 29% of the Moon is Illuminated
Hoy
Creciente
Sep 2
Cuarto creciente
Sep 8
Luna llena
Sep 15
Cuarto menguante
Sep 24
Nueva

Extremos de hoy

Máximos del estado Bajos del estado

Community

WunderPhotos

Upload Photos

1,748,820 ¡fotos cargadas!

Nearby

Calidad del aire

  Calidad del aire Índice AQ Contaminante
Ayer Moderada
PM2.5
Ayer Buena
OZONE
Real Moderada
PM2.5
Real Buena
OZONE
Domingo Moderada
OZONE
Domingo Buena
PM2.5
Lunes Moderada
PM2.5
Lunes Buena
OZONE
Martes Buena
OZONE
Martes Buena
PM2.5

Grosos de nieve

Estación Profundido Altura
No tenemos constancia de nieve nueva.

Actividad de terremotos

Ciudad Distance Mag. Tiempo y dato
No hay informes recientes de la actividad sísmica.
Magnitud mínima muestra es 2,5.

Temperaturas de aguas costeras

Lugar Temperatura
Sin partes meteorológicos de las estaciones

Estaciones meteorológicas cercanas